Time;durP1;ratioP1;P1;durP2;ratioP2;P2;SDS_P1;SDS_P2;PMS_P1;PMS_P2;Temp;Humidity;BMP_temperature;BMP_pressure;BME280_temperature;BME280_humidity;BME280_pressure;Samples;Min_cycle;Max_cycle;Signal;HPM_P1;HPM_P2
2022/03/24 00:00:39;;;;;;;38.55;26.27;;;6.00;99.90;;;;;;5057656;28;20054;-70
2022/03/24 00:03:08;;;;;;;45.67;31.75;;;5.70;99.90;;;;;;5023251;28;20057;-70
2022/03/24 00:05:34;;;;;;;47.97;32.58;;;5.60;99.90;;;;;;5024114;28;20101;-70
2022/03/24 00:08:01;;;;;;;45.42;29.45;;;5.60;99.90;;;;;;5024777;28;20076;-70
2022/03/24 00:10:27;;;;;;;38.60;28.05;;;5.60;99.90;;;;;;5024912;28;20078;-70
2022/03/24 00:12:55;;;;;;;47.00;31.55;;;5.50;99.90;;;;;;5056974;28;20037;-70
2022/03/24 00:15:21;;;;;;;47.20;31.25;;;5.40;99.90;;;;;;5023786;28;20049;-71
2022/03/24 00:17:47;;;;;;;52.75;33.75;;;5.40;99.90;;;;;;5023690;28;20517;-69
2022/03/24 00:20:13;;;;;;;49.50;33.20;;;5.40;99.90;;;;;;5057752;28;20046;-70
2022/03/24 00:22:39;;;;;;;46.22;32.00;;;5.40;99.90;;;;;;5020819;28;20065;-71
2022/03/24 00:25:05;;;;;;;52.10;33.53;;;5.40;99.90;;;;;;5024229;28;20046;-70
2022/03/24 00:27:31;;;;;;;58.53;37.03;;;5.40;99.90;;;;;;5053456;28;20045;-71
2022/03/24 00:29:57;;;;;;;55.13;36.50;;;5.40;99.90;;;;;;5024117;28;20085;-70
2022/03/24 00:32:23;;;;;;;59.83;37.42;;;5.50;99.90;;;;;;5040002;28;20033;-71
2022/03/24 00:34:48;;;;;;;52.72;34.75;;;5.40;99.90;;;;;;5024111;28;20089;-72
2022/03/24 00:37:15;;;;;;;47.55;33.05;;;5.50;99.90;;;;;;5056017;28;20041;-70
2022/03/24 00:39:41;;;;;;;44.33;31.80;;;5.40;99.90;;;;;;5021183;28;20042;-69
2022/03/24 00:42:11;;;;;;;49.90;33.33;;;5.30;99.90;;;;;;5056152;28;20145;-69
2022/03/24 00:44:42;;;;;;;49.33;32.88;;;5.30;99.90;;;;;;5021843;28;20046;-69
2022/03/24 00:47:10;;;;;;;47.42;33.53;;;5.20;99.90;;;;;;5056219;28;20068;-70
2022/03/24 00:49:36;;;;;;;51.50;34.75;;;5.20;99.90;;;;;;5021370;28;20053;-70
2022/03/24 00:52:02;;;;;;;43.13;31.00;;;5.20;99.90;;;;;;5039927;28;20133;-69
2022/03/24 00:54:28;;;;;;;45.83;31.70;;;5.10;99.90;;;;;;5039984;28;20136;-69
2022/03/24 00:56:54;;;;;;;43.13;30.63;;;4.90;99.90;;;;;;5054988;28;20413;-69
2022/03/24 00:59:22;;;;;;;46.60;32.08;;;4.80;99.90;;;;;;5056230;28;20066;-69
2022/03/24 01:01:48;;;;;;;50.08;33.22;;;4.70;99.90;;;;;;5056393;28;20042;-69
2022/03/24 01:04:14;;;;;;;52.88;35.65;;;4.60;99.90;;;;;;5055828;28;20088;-70
2022/03/24 01:06:40;;;;;;;53.75;36.33;;;4.70;99.90;;;;;;5018196;28;20513;-71
2022/03/24 01:09:06;;;;;;;61.97;36.40;;;4.70;99.90;;;;;;5052635;28;20142;-69
2022/03/24 01:11:32;;;;;;;55.75;37.65;;;4.80;99.90;;;;;;5056781;28;20058;-69
2022/03/24 01:14:00;;;;;;;59.97;38.88;;;4.80;99.90;;;;;;5022025;28;20081;-70
2022/03/24 01:16:25;;;;;;;63.47;38.58;;;4.80;99.90;;;;;;5051419;28;20096;-72
2022/03/24 01:18:51;;;;;;;63.40;40.03;;;4.80;99.90;;;;;;5056639;28;20548;-72
2022/03/24 01:21:17;;;;;;;57.13;38.83;;;4.90;99.90;;;;;;5056284;28;20046;-70
2022/03/24 01:23:45;;;;;;;53.22;32.78;;;4.90;99.90;;;;;;5023592;28;20380;-70
2022/03/24 01:26:11;;;;;;;51.92;33.83;;;4.90;99.90;;;;;;5006529;28;20045;-70
2022/03/24 01:28:39;;;;;;;51.78;33.58;;;4.80;99.90;;;;;;5020291;28;20052;-70
2022/03/24 01:31:05;;;;;;;53.65;33.65;;;4.70;99.90;;;;;;5059167;28;20057;-70
2022/03/24 01:33:31;;;;;;;46.65;30.85;;;4.60;99.90;;;;;;5061391;28;20050;-69
2022/03/24 01:35:57;;;;;;;48.53;32.03;;;4.50;99.90;;;;;;5055402;28;20070;-70
2022/03/24 01:38:23;;;;;;;43.53;29.58;;;4.50;99.90;;;;;;5023926;28;20888;-70
2022/03/24 01:40:51;;;;;;;52.70;35.50;;;4.40;99.90;;;;;;5026760;28;20053;-69
2022/03/24 01:43:17;;;;;;;53.38;35.28;;;4.30;99.90;;;;;;5057731;28;20085;-71
2022/03/24 01:45:43;;;;;;;58.08;37.03;;;4.30;99.90;;;;;;5054578;28;20054;-72
2022/03/24 01:48:09;;;;;;;61.83;40.05;;;4.20;99.90;;;;;;5007957;28;20081;-71
2022/03/24 01:50:39;;;;;;;66.53;41.55;;;4.30;99.90;;;;;;5028475;28;20499;-71
2022/03/24 01:53:05;;;;;;;66.65;43.13;;;4.30;99.90;;;;;;5028733;28;20058;-69
2022/03/24 01:55:33;;;;;;;64.00;42.17;;;4.30;99.90;;;;;;5026931;28;20045;-70
2022/03/24 01:57:59;;;;;;;70.68;43.25;;;4.40;99.90;;;;;;5026512;28;20057;-70
2022/03/24 02:00:24;;;;;;;66.15;40.97;;;4.50;99.90;;;;;;5059807;28;20053;-70
2022/03/24 02:02:53;;;;;;;63.63;40.88;;;4.50;99.90;;;;;;5022134;28;20050;-70
2022/03/24 02:05:18;;;;;;;66.50;42.10;;;4.50;99.90;;;;;;5026249;28;20057;-71
2022/03/24 02:07:44;;;;;;;57.40;38.58;;;4.40;99.90;;;;;;5025547;28;20045;-71
2022/03/24 02:10:11;;;;;;;54.50;35.72;;;4.40;99.90;;;;;;5059834;28;20065;-70
2022/03/24 02:12:37;;;;;;;55.42;36.58;;;4.30;99.90;;;;;;5054991;28;20065;-70
2022/03/24 02:15:04;;;;;;;51.42;33.35;;;4.20;99.90;;;;;;5059245;28;20053;-70
2022/03/24 02:17:30;;;;;;;53.85;34.47;;;4.20;99.90;;;;;;5026664;28;20129;-70
2022/03/24 02:20:00;;;;;;;53.17;33.83;;;4.10;99.90;;;;;;5053044;28;20135;-70
2022/03/24 02:22:27;;;;;;;55.60;36.72;;;4.00;99.90;;;;;;5027750;28;20053;-70
2022/03/24 02:24:53;;;;;;;56.63;36.42;;;3.90;99.90;;;;;;5058719;28;20092;-70
2022/03/24 02:27:19;;;;;;;66.63;39.30;;;3.90;99.90;;;;;;5059748;28;20062;-69
2022/03/24 02:29:47;;;;;;;64.90;39.15;;;3.80;99.90;;;;;;5059440;28;20042;-70
2022/03/24 02:32:20;;;;;;;64.50;42.35;;;3.60;99.90;;;;;;5059599;28;20054;-70
2022/03/24 02:34:51;;;;;;;61.22;39.08;;;3.70;99.90;;;;;;5019920;28;20056;-70
2022/03/24 02:37:24;;;;;;;55.25;35.33;;;3.80;99.90;;;;;;5025390;28;20145;-70
2022/03/24 02:39:54;;;;;;;52.50;34.40;;;3.70;99.90;;;;;;5053581;28;20053;-69
2022/03/24 02:42:22;;;;;;;57.72;36.50;;;3.70;99.90;;;;;;5026084;28;20126;-69
2022/03/24 02:44:51;;;;;;;64.43;39.92;;;3.60;99.90;;;;;;5021844;28;20042;-69
2022/03/24 02:47:18;;;;;;;61.60;38.78;;;3.50;99.90;;;;;;5009692;28;20077;-68
2022/03/24 02:49:48;;;;;;;57.70;38.05;;;3.40;99.90;;;;;;5025461;28;20513;-68
2022/03/24 02:52:15;;;;;;;63.25;39.00;;;3.30;99.90;;;;;;5009241;28;20052;-68
2022/03/24 02:54:41;;;;;;;69.47;41.72;;;3.40;99.90;;;;;;5041919;28;20132;-69
2022/03/24 02:57:08;;;;;;;70.85;45.15;;;3.50;99.90;;;;;;5024985;28;20057;-69
2022/03/24 02:59:34;;;;;;;74.43;46.78;;;3.60;99.90;;;;;;5025287;28;20042;-69
2022/03/24 03:02:13;;;;;;;75.10;47.08;;;3.60;99.90;;;;;;5022758;28;20132;-69
2022/03/24 03:04:40;;;;;;;78.20;45.90;;;3.70;99.90;;;;;;5055113;28;20416;-69
2022/03/24 03:07:06;;;;;;;75.78;45.80;;;3.60;99.90;;;;;;5058572;28;20038;-69
2022/03/24 03:09:34;;;;;;;72.45;44.22;;;3.70;99.90;;;;;;5058173;28;20797;-69
2022/03/24 03:12:00;;;;;;;64.82;40.17;;;3.80;99.90;;;;;;5025801;28;20105;-69
2022/03/24 03:14:29;;;;;;;76.40;46.47;;;3.60;99.90;;;;;;5057414;28;20056;-69
2022/03/24 03:16:56;;;;;;;77.95;48.80;;;3.60;99.90;;;;;;5039571;28;20050;-69
2022/03/24 03:19:23;;;;;;;81.22;49.58;;;3.60;99.90;;;;;;5057991;28;20060;-69
2022/03/24 03:21:49;;;;;;;80.55;49.22;;;3.70;99.90;;;;;;5021245;28;20042;-69
2022/03/24 03:24:16;;;;;;;77.60;48.42;;;3.70;99.90;;;;;;5022322;28;20046;-69
2022/03/24 03:26:42;;;;;;;81.60;49.25;;;3.70;99.90;;;;;;5036726;28;20059;-69
2022/03/24 03:29:09;;;;;;;71.32;44.45;;;3.60;99.90;;;;;;5025863;28;20081;-69
2022/03/24 03:31:35;;;;;;;70.18;43.38;;;3.60;99.90;;;;;;5054446;28;20050;-69
2022/03/24 03:34:03;;;;;;;75.60;45.33;;;3.50;99.90;;;;;;5038874;28;20061;-69
2022/03/24 03:36:30;;;;;;;72.28;46.25;;;3.50;99.90;;;;;;5025689;28;20081;-69
2022/03/24 03:38:56;;;;;;;76.75;47.80;;;3.30;99.90;;;;;;5024398;28;20054;-69
2022/03/24 03:41:22;;;;;;;78.13;48.42;;;3.30;99.90;;;;;;5056919;28;20088;-69
2022/03/24 03:43:49;;;;;;;82.13;50.22;;;3.30;99.90;;;;;;5021672;28;20046;-69
2022/03/24 03:46:16;;;;;;;75.88;47.45;;;3.30;99.90;;;;;;5024849;28;20052;-69
2022/03/24 03:48:42;;;;;;;83.22;51.15;;;3.30;99.90;;;;;;5057681;28;20181;-69
2022/03/24 03:51:08;;;;;;;85.63;51.72;;;3.30;99.90;;;;;;5054394;28;20130;-69
2022/03/24 03:53:37;;;;;;;72.10;45.05;;;3.40;99.90;;;;;;5055737;28;20050;-69
2022/03/24 03:56:04;;;;;;;80.13;46.17;;;3.30;99.90;;;;;;5023645;28;20053;-69
2022/03/24 03:58:31;;;;;;;71.85;45.80;;;3.30;99.90;;;;;;5024031;28;20078;-70
2022/03/24 04:00:57;;;;;;;68.70;43.53;;;3.40;99.90;;;;;;5040992;28;20042;-69
2022/03/24 04:03:28;;;;;;;69.55;44.88;;;3.30;99.90;;;;;;5020439;28;20117;-69
2022/03/24 04:05:57;;;;;;;71.15;41.75;;;3.20;99.90;;;;;;5016841;28;20057;-70
2022/03/24 04:08:23;;;;;;;68.00;42.70;;;3.10;99.90;;;;;;5024896;28;20053;-69
2022/03/24 04:10:49;;;;;;;69.93;42.83;;;3.20;99.90;;;;;;5055694;28;20387;-70
2022/03/24 04:13:17;;;;;;;64.18;39.78;;;3.20;99.90;;;;;;5051395;28;20049;-70
2022/03/24 04:15:43;;;;;;;59.78;37.58;;;3.00;99.90;;;;;;5023038;28;20533;-71
2022/03/24 04:18:09;;;;;;;64.00;39.08;;;2.70;99.90;;;;;;5052832;28;20054;-71
2022/03/24 04:20:36;;;;;;;70.70;43.28;;;2.60;99.90;;;;;;5039015;28;20050;-69
2022/03/24 04:23:04;;;;;;;74.43;43.42;;;2.50;99.90;;;;;;5025259;28;20426;-70
2022/03/24 04:25:30;;;;;;;70.97;42.92;;;2.60;99.90;;;;;;5052812;28;20073;-69
2022/03/24 04:27:56;;;;;;;71.60;45.42;;;2.60;99.90;;;;;;5025046;28;20077;-69
2022/03/24 04:30:22;;;;;;;75.95;47.15;;;2.70;99.90;;;;;;5024874;28;20102;-69
2022/03/24 04:32:49;;;;;;;74.88;48.08;;;2.80;99.90;;;;;;5040884;28;20046;-69
2022/03/24 04:35:15;;;;;;;81.40;49.05;;;2.70;99.90;;;;;;5022122;28;20502;-69
2022/03/24 04:37:42;;;;;;;81.00;49.38;;;2.90;99.90;;;;;;5040700;28;20046;-69
2022/03/24 04:40:11;;;;;;;83.13;50.33;;;2.90;99.90;;;;;;5024968;28;20049;-69
2022/03/24 04:42:40;;;;;;;77.47;46.50;;;3.00;99.90;;;;;;5022652;28;20052;-69
2022/03/24 04:45:07;;;;;;;70.25;43.70;;;2.90;99.90;;;;;;5021888;28;20042;-70
2022/03/24 04:47:34;;;;;;;72.93;45.85;;;2.90;99.90;;;;;;5056693;28;20049;-70
2022/03/24 04:50:00;;;;;;;80.30;49.92;;;2.90;99.90;;;;;;5024366;28;20053;-71
2022/03/24 04:52:26;;;;;;;83.10;50.22;;;2.90;99.90;;;;;;5023559;28;20054;-71
2022/03/24 04:54:52;;;;;;;83.95;51.20;;;2.90;99.90;;;;;;5020353;28;20050;-69
2022/03/24 04:57:17;;;;;;;78.22;47.25;;;2.90;99.90;;;;;;5056518;28;20058;-69
2022/03/24 04:59:43;;;;;;;71.18;42.75;;;2.80;99.90;;;;;;5021875;28;20046;-69
2022/03/24 05:02:12;;;;;;;70.70;43.10;;;2.80;99.90;;;;;;5023443;28;20044;-69
2022/03/24 05:04:38;;;;;;;74.68;45.17;;;2.70;99.90;;;;;;5021487;28;20045;-69
2022/03/24 05:07:04;;;;;;;71.22;41.97;;;2.80;99.90;;;;;;5025332;28;20056;-69
2022/03/24 05:09:29;;;;;;;66.90;42.92;;;2.90;99.90;;;;;;5022355;28;20041;-69
2022/03/24 05:11:55;;;;;;;71.18;45.15;;;2.80;99.90;;;;;;5037946;28;20049;-69
2022/03/24 05:14:21;;;;;;;76.60;45.22;;;2.80;99.90;;;;;;5051988;28;20044;-69
2022/03/24 05:16:46;;;;;;;73.72;45.45;;;2.80;99.90;;;;;;5056638;28;20122;-69
2022/03/24 05:19:13;;;;;;;72.55;44.75;;;2.70;99.90;;;;;;5020922;28;20046;-69
2022/03/24 05:21:39;;;;;;;76.90;46.47;;;2.70;99.90;;;;;;5037226;28;20055;-69
2022/03/24 05:24:05;;;;;;;79.72;48.20;;;2.50;99.90;;;;;;5052283;28;20038;-69
2022/03/24 05:26:30;;;;;;;82.43;49.90;;;2.60;99.90;;;;;;5017407;28;20050;-69
2022/03/24 05:28:56;;;;;;;83.20;50.10;;;2.50;99.90;;;;;;5023533;28;20068;-69
2022/03/24 05:31:22;;;;;;;88.90;51.30;;;2.50;99.90;;;;;;5018328;28;20073;-70
2022/03/24 05:33:47;;;;;;;87.13;52.92;;;2.60;99.90;;;;;;5038341;28;20038;-70
2022/03/24 05:36:15;;;;;;;89.15;52.65;;;2.60;99.90;;;;;;4980680;28;20092;-70
2022/03/24 05:38:41;;;;;;;79.40;49.05;;;2.60;99.90;;;;;;5054459;28;20065;-70
2022/03/24 05:41:08;;;;;;;82.03;49.25;;;2.60;99.90;;;;;;5020670;28;20049;-71
2022/03/24 05:43:34;;;;;;;77.07;46.95;;;2.60;99.90;;;;;;5055083;28;20050;-71
2022/03/24 05:46:00;;;;;;;78.85;47.70;;;2.60;99.90;;;;;;5036198;28;20124;-71
2022/03/24 05:48:25;;;;;;;77.93;46.28;;;2.60;99.90;;;;;;5027934;28;20053;-70
2022/03/24 05:50:51;;;;;;;79.47;48.70;;;2.60;99.90;;;;;;5000928;28;20545;-70
2022/03/24 05:53:17;;;;;;;92.03;50.38;;;2.50;99.90;;;;;;5023967;28;20152;-71
2022/03/24 05:55:43;;;;;;;87.20;51.17;;;2.60;99.90;;;;;;5023160;28;20068;-70
2022/03/24 05:58:09;;;;;;;89.65;55.08;;;2.70;99.90;;;;;;5047114;28;20523;-71
2022/03/24 06:00:39;;;;;;;82.10;48.30;;;2.80;99.90;;;;;;5047638;28;20050;-71
2022/03/24 06:03:05;;;;;;;84.25;49.22;;;2.80;99.90;;;;;;5018355;28;20062;-71
2022/03/24 06:05:31;;;;;;;81.78;48.28;;;2.80;99.90;;;;;;5033956;28;20045;-72
2022/03/24 06:08:00;;;;;;;75.13;45.90;;;2.90;99.90;;;;;;5041492;28;20049;-72
2022/03/24 06:10:27;;;;;;;81.68;48.97;;;3.10;99.90;;;;;;5011411;28;20057;-73
2022/03/24 06:12:53;;;;;;;81.03;49.47;;;3.00;99.90;;;;;;4999114;28;20138;-72
2022/03/24 06:15:19;;;;;;;82.20;51.05;;;3.00;99.90;;;;;;5024885;28;20057;-70
2022/03/24 06:17:45;;;;;;;84.43;50.97;;;3.10;99.90;;;;;;5046103;28;20076;-72
2022/03/24 06:20:12;;;;;;;82.50;49.40;;;3.10;99.90;;;;;;5030093;28;20033;-72
2022/03/24 06:22:53;;;;;;;79.32;48.17;;;3.10;99.90;;;;;;5064189;28;20051;-73
2022/03/24 06:25:19;;;;;;;84.85;51.33;;;3.10;99.90;;;;;;5026686;28;20041;-72
2022/03/24 06:27:46;;;;;;;83.10;52.38;;;3.00;99.90;;;;;;5049012;28;20053;-72
2022/03/24 06:30:14;;;;;;;90.93;54.58;;;3.10;99.90;;;;;;5024757;28;20057;-71
2022/03/24 06:32:40;;;;;;;94.18;56.38;;;3.20;99.90;;;;;;5017286;28;20060;-71
2022/03/24 06:35:08;;;;;;;92.75;54.10;;;3.40;99.90;;;;;;5008544;28;20042;-73
2022/03/24 06:37:39;;;;;;;79.47;50.30;;;3.40;99.90;;;;;;5011613;28;20079;-72
2022/03/24 06:40:10;;;;;;;82.90;49.85;;;3.60;99.90;;;;;;5008849;28;20042;-71
2022/03/24 06:42:36;;;;;;;83.82;51.45;;;3.60;99.90;;;;;;5015305;28;20608;-71
2022/03/24 06:45:04;;;;;;;86.28;51.42;;;3.80;99.90;;;;;;5032205;28;20117;-71
2022/03/24 06:47:30;;;;;;;87.20;53.40;;;3.80;99.90;;;;;;5048965;28;20087;-72
2022/03/24 06:49:57;;;;;;;87.00;54.65;;;3.90;99.90;;;;;;5033047;28;20046;-72
2022/03/24 06:52:23;;;;;;;96.35;60.05;;;4.00;99.90;;;;;;5045945;28;20041;-71
2022/03/24 06:54:49;;;;;;;93.75;58.40;;;4.10;99.90;;;;;;5017165;28;20045;-72
2022/03/24 06:57:14;;;;;;;90.30;56.90;;;4.20;99.90;;;;;;5042755;28;20150;-71
2022/03/24 06:59:41;;;;;;;95.70;60.35;;;4.40;99.90;;;;;;5016433;28;20164;-71
2022/03/24 07:02:07;;;;;;;103.53;62.95;;;4.60;99.90;;;;;;5017514;28;20060;-71
2022/03/24 07:04:33;;;;;;;108.53;65.78;;;4.70;99.90;;;;;;5020652;28;20117;-71
2022/03/24 07:06:59;;;;;;;107.68;65.95;;;4.70;99.90;;;;;;5069016;28;20115;-71
2022/03/24 07:09:24;;;;;;;105.88;64.88;;;4.90;99.90;;;;;;5025267;28;20521;-71
2022/03/24 07:11:50;;;;;;;102.82;61.22;;;5.10;99.90;;;;;;5016069;28;20140;-71
2022/03/24 07:14:16;;;;;;;107.72;65.30;;;5.00;99.90;;;;;;5058258;28;20087;-71
2022/03/24 07:16:41;;;;;;;106.65;64.07;;;5.20;99.90;;;;;;5015967;28;20050;-71
2022/03/24 07:19:08;;;;;;;107.78;65.25;;;5.30;99.90;;;;;;5025305;28;20049;-71
2022/03/24 07:21:34;;;;;;;109.18;66.95;;;5.30;99.90;;;;;;5016354;28;20092;-71
2022/03/24 07:24:00;;;;;;;105.28;66.88;;;5.50;99.90;;;;;;5023463;28;20052;-71
2022/03/24 07:26:25;;;;;;;106.53;68.25;;;5.50;99.90;;;;;;5019463;28;20488;-71
2022/03/24 07:28:51;;;;;;;112.18;70.10;;;5.70;99.90;;;;;;5021621;28;20317;-71
2022/03/24 07:31:19;;;;;;;102.13;65.43;;;5.70;99.90;;;;;;5019879;28;20043;-67
2022/03/24 07:33:45;;;;;;;100.75;63.72;;;5.70;99.90;;;;;;5042239;28;20103;-67
2022/03/24 07:36:12;;;;;;;102.25;63.70;;;5.90;99.90;;;;;;5002906;28;20306;-68
2022/03/24 07:38:39;;;;;;;101.50;64.82;;;6.00;99.90;;;;;;5040854;28;20072;-67
2022/03/24 07:41:05;;;;;;;101.03;67.88;;;6.00;99.90;;;;;;5048675;28;20046;-67
2022/03/24 07:43:30;;;;;;;104.75;67.20;;;6.20;99.90;;;;;;5039213;28;20149;-67
2022/03/24 07:45:56;;;;;;;104.93;67.25;;;6.20;99.90;;;;;;5014395;28;20049;-67
2022/03/24 07:48:25;;;;;;;106.65;67.05;;;6.40;99.90;;;;;;5016298;28;20081;-67
2022/03/24 07:50:54;;;;;;;102.43;66.85;;;6.50;99.90;;;;;;5031339;28;20034;-67
2022/03/24 07:53:36;;;;;;;102.85;64.63;;;6.60;99.90;;;;;;5044382;28;20219;-66
2022/03/24 07:56:02;;;;;;;96.32;61.60;;;6.80;99.90;;;;;;5021436;28;20042;-67
2022/03/24 07:58:28;;;;;;;89.82;58.22;;;6.80;99.90;;;;;;5018305;28;20076;-67
2022/03/24 08:00:57;;;;;;;82.20;54.58;;;6.90;99.90;;;;;;5034947;28;20057;-67
2022/03/24 08:05:29;;;;;;;80.85;52.42;;;7.00;99.90;;;;;;5103951;27;20411;-65
2022/03/24 08:07:56;;;;;;;64.38;42.17;;;7.10;99.90;;;;;;5111998;27;20047;-65
2022/03/24 08:10:23;;;;;;;60.38;39.90;;;8.30;99.90;;;;;;5108046;28;20048;-64
2022/03/24 08:12:48;;;;;;;63.38;38.42;;;9.70;99.90;;;;;;5142260;27;20076;-64
2022/03/24 08:15:24;;;;;;;77.13;51.47;;;10.80;99.90;;;;;;5131254;27;20390;-64
2022/03/24 08:17:50;;;;;;;66.20;44.47;;;11.10;99.90;;;;;;5125084;27;20043;-62
2022/03/24 08:20:16;;;;;;;69.28;47.65;;;10.80;99.90;;;;;;5101160;28;20040;-62
2022/03/24 08:22:42;;;;;;;68.97;46.65;;;10.40;99.90;;;;;;5104425;28;20083;-63
2022/03/24 08:25:11;;;;;;;70.97;49.40;;;10.10;99.90;;;;;;5111727;28;20144;-63
2022/03/24 08:27:37;;;;;;;70.53;46.35;;;9.90;99.90;;;;;;5101793;28;20059;-64
2022/03/24 08:30:04;;;;;;;62.60;42.53;;;9.70;99.90;;;;;;5118643;28;20052;-64
2022/03/24 08:32:29;;;;;;;64.95;43.20;;;9.60;99.90;;;;;;5093656;28;20100;-63
2022/03/24 08:34:55;;;;;;;67.25;44.03;;;9.50;99.90;;;;;;5089118;27;20079;-64
2022/03/24 08:37:21;;;;;;;64.75;45.90;;;9.40;99.90;;;;;;5133754;28;20078;-63
2022/03/24 08:39:47;;;;;;;67.07;44.58;;;9.50;99.90;;;;;;5105686;28;20081;-64
2022/03/24 08:42:13;;;;;;;62.28;42.17;;;9.50;99.90;;;;;;5132733;28;20057;-64
2022/03/24 08:44:39;;;;;;;61.75;42.92;;;9.40;99.90;;;;;;5126311;27;20115;-64
2022/03/24 08:47:05;;;;;;;64.25;42.40;;;9.40;99.90;;;;;;5131159;28;20043;-63
2022/03/24 08:49:31;;;;;;;62.17;38.58;;;9.40;99.90;;;;;;5129001;27;20080;-63
2022/03/24 08:51:57;;;;;;;69.47;39.88;;;9.40;99.90;;;;;;5135175;27;20032;-63
2022/03/24 08:54:23;;;;;;;61.35;39.00;;;9.50;99.90;;;;;;5141957;27;20153;-63
2022/03/24 08:56:49;;;;;;;60.40;36.90;;;9.60;99.90;;;;;;5131195;28;20198;-63
2022/03/24 08:59:15;;;;;;;54.85;35.92;;;9.70;99.90;;;;;;5125029;27;20063;-63
2022/03/24 09:01:43;;;;;;;56.38;38.00;;;9.90;99.90;;;;;;5130167;27;20540;-63
2022/03/24 09:04:10;;;;;;;61.35;39.95;;;10.10;99.90;;;;;;5123411;27;20039;-63
2022/03/24 09:06:36;;;;;;;59.83;38.70;;;10.10;99.90;;;;;;5127400;28;20051;-64
2022/03/24 09:09:02;;;;;;;63.92;41.05;;;10.20;99.90;;;;;;5127076;27;20047;-63
2022/03/24 09:11:28;;;;;;;60.58;38.63;;;10.20;99.90;;;;;;5130046;27;20310;-63
2022/03/24 09:13:55;;;;;;;71.75;42.08;;;10.30;99.90;;;;;;5136603;27;20631;-63
2022/03/24 09:16:21;;;;;;;55.38;38.65;;;10.50;99.90;;;;;;5104844;28;20048;-63
2022/03/24 09:18:47;;;;;;;57.08;40.45;;;10.50;99.90;;;;;;5126349;27;20300;-63
2022/03/24 09:21:14;;;;;;;57.45;38.08;;;10.60;99.90;;;;;;5130613;28;20040;-64
2022/03/24 09:23:40;;;;;;;52.63;35.30;;;10.70;99.90;;;;;;5135417;27;20047;-63
2022/03/24 09:26:05;;;;;;;52.55;35.05;;;10.90;99.90;;;;;;5122850;27;20051;-63
2022/03/24 09:28:32;;;;;;;49.90;32.75;;;11.00;99.90;;;;;;5114555;27;20058;-63
2022/03/24 09:30:58;;;;;;;48.90;35.00;;;11.20;99.90;;;;;;5117824;27;20055;-63
2022/03/24 09:33:24;;;;;;;59.55;34.80;;;11.50;99.90;;;;;;5109154;27;20043;-63
2022/03/24 09:35:50;;;;;;;51.22;35.15;;;11.60;99.90;;;;;;5102966;27;20051;-63
2022/03/24 09:38:20;;;;;;;56.47;34.95;;;11.70;99.90;;;;;;5096534;27;20594;-63
2022/03/24 09:40:46;;;;;;;58.60;37.10;;;11.90;99.90;;;;;;5138610;27;20055;-63
2022/03/24 09:43:14;;;;;;;54.40;35.97;;;12.00;99.90;;;;;;5131598;27;20051;-64
2022/03/24 09:45:42;;;;;;;53.00;36.00;;;12.20;99.90;;;;;;5135288;27;20058;-64
2022/03/24 09:48:10;;;;;;;53.78;36.15;;;12.30;99.90;;;;;;5129874;27;20109;-63
2022/03/24 09:50:37;;;;;;;53.50;34.97;;;12.40;99.90;;;;;;5137793;27;20075;-63
2022/03/24 09:53:03;;;;;;;50.40;35.10;;;12.50;99.90;;;;;;5120739;27;20055;-63
2022/03/24 09:55:32;;;;;;;55.60;36.65;;;12.60;99.90;;;;;;5108893;28;20192;-63
2022/03/24 09:58:02;;;;;;;50.70;32.63;;;12.70;99.90;;;;;;5107643;28;20171;-63
2022/03/24 10:00:28;;;;;;;51.40;33.13;;;12.70;99.90;;;;;;5125864;27;20039;-63
2022/03/24 10:03:17;;;;;;;48.22;32.72;;;12.80;99.90;;;;;;5117344;27;20050;-63
2022/03/24 10:06:02;;;;;;;50.00;32.85;;;12.80;99.90;;;;;;5122836;27;20059;-64
2022/03/24 10:08:29;;;;;;;51.60;30.75;;;12.90;99.90;;;;;;5105367;27;20644;-64
2022/03/24 10:11:06;;;;;;;50.58;32.35;;;13.00;99.90;;;;;;5110788;27;20073;-64
2022/03/24 10:13:47;;;;;;;48.00;33.70;;;13.10;99.90;;;;;;5108618;27;20043;-63
2022/03/24 10:16:33;;;;;;;53.08;32.72;;;13.20;99.90;;;;;;5108414;27;20056;-64
2022/03/24 10:19:19;;;;;;;46.05;31.38;;;13.30;99.90;;;;;;5102477;27;20066;-63
2022/03/24 10:21:50;;;;;;;50.33;33.08;;;13.50;99.90;;;;;;5110604;28;20035;-64
2022/03/24 10:24:21;;;;;;;52.22;33.92;;;13.50;99.90;;;;;;5114693;27;20069;-63
2022/03/24 10:26:47;;;;;;;48.72;32.85;;;13.60;99.90;;;;;;5110522;28;20043;-64
2022/03/24 10:29:23;;;;;;;49.30;33.30;;;13.60;99.90;;;;;;5106614;27;20051;-63
2022/03/24 10:32:01;;;;;;;46.92;32.70;;;13.60;99.90;;;;;;5109358;28;20073;-64
2022/03/24 10:34:30;;;;;;;49.53;32.08;;;13.70;99.90;;;;;;5105566;27;20526;-64
2022/03/24 10:36:56;;;;;;;190.23;40.05;;;13.90;99.90;;;;;;5116883;27;20044;-64
2022/03/24 10:39:26;;;;;;;49.95;32.35;;;13.90;99.90;;;;;;5119254;27;20107;-64
2022/03/24 10:41:52;;;;;;;;;;;14.10;99.90;;;;;;5116681;28;20221;-63
2022/03/24 10:44:18;;;;;;;44.70;29.58;;;14.20;99.90;;;;;;5117011;27;20244;-64
2022/03/24 10:46:43;;;;;;;43.35;29.92;;;14.20;99.90;;;;;;5122426;27;20374;-64
2022/03/24 10:49:19;;;;;;;43.90;28.85;;;14.30;99.90;;;;;;5116977;27;20043;-64
2022/03/24 10:51:47;;;;;;;48.35;31.35;;;14.30;99.90;;;;;;5118766;28;20047;-64
2022/03/24 10:54:38;;;;;;;41.80;28.38;;;14.30;99.90;;;;;;5111466;27;20118;-64
2022/03/24 10:57:18;;;;;;;44.63;27.27;;;14.50;99.90;;;;;;5116476;28;20035;-64
2022/03/24 10:59:47;;;;;;;36.42;25.50;;;14.60;99.90;;;;;;5119108;27;20047;-64
2022/03/24 11:02:15;;;;;;;36.53;25.35;;;14.70;99.90;;;;;;5114467;28;20059;-64
2022/03/24 11:04:41;;;;;;;42.35;27.88;;;14.80;99.90;;;;;;5108308;27;20607;-64
2022/03/24 11:07:07;;;;;;;44.88;29.08;;;14.90;99.90;;;;;;5119644;27;20044;-64
2022/03/24 11:09:34;;;;;;;44.67;28.23;;;15.00;99.90;;;;;;5108951;27;20059;-64
2022/03/24 11:12:31;;;;;;;38.72;27.35;;;15.10;99.90;;;;;;5120804;27;20035;-64
2022/03/24 11:15:05;;;;;;;37.50;24.23;;;15.10;99.90;;;;;;5096899;27;20661;-64
2022/03/24 11:17:33;;;;;;;34.78;25.15;;;15.10;99.90;;;;;;5112572;28;20044;-63
2022/03/24 11:20:04;;;;;;;35.55;24.92;;;15.20;99.90;;;;;;5104501;28;20063;-64
2022/03/24 11:22:54;;;;;;;42.30;26.35;;;15.30;99.60;;;;;;5113893;28;20042;-63
2022/03/24 11:25:20;;;;;;;;;;;15.40;99.70;;;;;;5115260;27;20074;-63
2022/03/24 11:27:47;;;;;;;37.90;25.42;;;15.50;99.90;;;;;;5113625;27;19955;-63
2022/03/24 11:30:14;;;;;;;28.50;20.88;;;15.60;98.60;;;;;;5126396;27;20047;-63
2022/03/24 11:32:42;;;;;;;33.70;22.70;;;15.80;94.90;;;;;;5115376;28;20040;-64
2022/03/24 11:35:09;;;;;;;32.75;22.17;;;15.90;93.30;;;;;;5111364;27;20362;-64
2022/03/24 11:37:35;;;;;;;32.13;19.08;;;15.90;91.30;;;;;;5116559;28;20035;-63
2022/03/24 11:40:04;;;;;;;24.52;16.63;;;16.10;84.50;;;;;;5115799;27;20059;-63
2022/03/24 11:42:33;;;;;;;24.50;16.95;;;16.10;78.30;;;;;;5103212;27;20066;-63
2022/03/24 11:45:04;;;;;;;31.77;19.17;;;16.20;82.50;;;;;;5105518;27;20138;-64
2022/03/24 11:47:49;;;;;;;24.27;16.90;;;16.20;81.00;;;;;;5119116;27;20061;-64
2022/03/24 11:50:17;;;;;;;27.50;17.73;;;16.10;75.20;;;;;;5108423;27;20374;-64
2022/03/24 11:52:44;;;;;;;26.30;18.50;;;16.10;75.70;;;;;;5116183;28;20044;-64
2022/03/24 11:55:14;;;;;;;30.38;19.33;;;16.20;78.40;;;;;;5124466;27;20558;-64
2022/03/24 11:57:41;;;;;;;29.27;19.23;;;16.20;77.10;;;;;;5116269;27;20036;-63
2022/03/24 12:00:12;;;;;;;31.63;21.08;;;16.30;75.70;;;;;;5119448;27;20042;-64
2022/03/24 12:03:05;;;;;;;34.33;22.45;;;16.40;76.90;;;;;;5112685;28;20215;-64
2022/03/24 12:05:53;;;;;;;35.70;23.30;;;16.40;76.80;;;;;;5095007;28;20044;-65
2022/03/24 12:08:29;;;;;;;31.48;20.02;;;16.40;73.00;;;;;;5079769;27;20050;-64
2022/03/24 12:10:56;;;;;;;28.45;19.85;;;16.40;66.60;;;;;;5125719;27;20054;-64
2022/03/24 12:13:22;;;;;;;35.15;22.98;;;16.40;70.60;;;;;;5136747;28;20047;-64
2022/03/24 12:16:11;;;;;;;33.10;20.63;;;16.70;74.40;;;;;;5090627;28;20126;-64
2022/03/24 12:18:43;;;;;;;35.78;21.10;;;16.80;74.00;;;;;;5123604;27;20051;-64
2022/03/24 12:21:29;;;;;;;32.63;20.85;;;16.90;72.00;;;;;;5135862;27;20534;-64
2022/03/24 12:24:17;;;;;;;31.15;21.05;;;17.10;73.30;;;;;;5129930;27;20104;-64
2022/03/24 12:26:54;;;;;;;32.92;20.35;;;17.30;74.40;;;;;;5144437;27;20038;-63
2022/03/24 12:29:24;;;;;;;31.30;20.00;;;17.40;71.20;;;;;;5126930;27;20131;-64
2022/03/24 12:31:59;;;;;;;33.22;20.42;;;17.50;68.50;;;;;;5143072;27;20560;-64
2022/03/24 12:34:46;;;;;;;32.22;19.92;;;17.60;64.70;;;;;;5123047;27;20600;-65
2022/03/24 12:37:27;;;;;;;29.35;20.20;;;17.60;65.30;;;;;;5141859;27;20384;-64
2022/03/24 12:40:09;;;;;;;29.27;18.63;;;17.80;69.10;;;;;;5129116;27;20046;-63